createdAt,value
2023-03-18T00:00:16.722Z,5.32
2023-03-18T00:02:43.738Z,5.15
2023-03-18T00:05:11.704Z,5.32
2023-03-18T00:07:41.549Z,5.53
2023-03-18T00:10:11.939Z,5.57
2023-03-18T00:12:42.162Z,5.45
2023-03-18T00:15:11.976Z,5.75
2023-03-18T00:17:41.202Z,5.03
2023-03-18T00:20:09.625Z,5.43
2023-03-18T00:22:43.256Z,4.63
2023-03-18T00:25:14.336Z,4.28
2023-03-18T00:27:41.188Z,4.13
2023-03-18T00:30:08.843Z,4.10
2023-03-18T00:32:36.093Z,3.70
2023-03-18T00:35:05.779Z,3.63
2023-03-18T00:37:33.626Z,3.60
2023-03-18T00:40:06.372Z,2.60
2023-03-18T00:42:39.921Z,2.72
2023-03-18T00:45:10.259Z,2.35
2023-03-18T00:47:38.581Z,2.47
2023-03-18T00:50:07.304Z,2.30
2023-03-18T00:52:34.716Z,1.98
2023-03-18T00:55:04.856Z,1.83
2023-03-18T00:57:31.793Z,1.77
2023-03-18T00:59:59.334Z,1.70
2023-03-18T01:02:28.432Z,1.80
2023-03-18T01:04:57.057Z,1.90
2023-03-18T01:07:24.279Z,1.65
2023-03-18T01:09:51.113Z,1.27
2023-03-18T01:12:18.177Z,1.67
2023-03-18T01:14:44.807Z,2.13
2023-03-18T01:17:11.597Z,1.63
2023-03-18T01:19:38.714Z,1.45
2023-03-18T01:22:05.617Z,1.45
2023-03-18T01:24:32.455Z,1.83
2023-03-18T01:27:00.099Z,2.17
2023-03-18T01:29:27.287Z,1.90
2023-03-18T01:31:55.028Z,2.03
2023-03-18T01:34:24.110Z,1.98
2023-03-18T01:36:50.952Z,2.10
2023-03-18T01:39:18.044Z,2.10
2023-03-18T01:41:45.607Z,2.17
2023-03-18T01:44:19.190Z,2.40
2023-03-18T01:46:50.084Z,3.15
2023-03-18T01:49:27.168Z,2.20
2023-03-18T01:52:02.887Z,2.50
2023-03-18T01:54:34.470Z,2.80
2023-03-18T01:57:03.841Z,2.83
2023-03-18T01:59:38.398Z,2.58
2023-03-18T02:02:10.779Z,2.70
2023-03-18T02:04:44.130Z,3.05
2023-03-18T02:07:26.237Z,3.03
2023-03-18T02:09:54.312Z,3.45
2023-03-18T02:12:29.442Z,3.85
2023-03-18T02:14:56.721Z,3.67
2023-03-18T02:17:30.172Z,3.92
2023-03-18T02:20:18.724Z,3.47
2023-03-18T02:23:08.727Z,3.30
2023-03-18T02:25:57.766Z,3.33
2023-03-18T02:28:29.619Z,3.40
2023-03-18T02:30:59.865Z,3.25
2023-03-18T02:33:34.733Z,3.20
2023-03-18T02:36:07.121Z,3.40
2023-03-18T02:38:33.744Z,3.70
2023-03-18T02:41:02.867Z,3.42
2023-03-18T02:43:31.934Z,3.60
2023-03-18T02:46:13.683Z,3.40
2023-03-18T02:48:44.211Z,3.28
2023-03-18T02:51:12.597Z,3.28
2023-03-18T02:53:39.357Z,3.92
2023-03-18T02:56:07.093Z,3.40
2023-03-18T02:58:34.409Z,3.22
2023-03-18T03:01:01.344Z,3.00
2023-03-18T03:03:29.106Z,3.28
2023-03-18T03:05:56.348Z,3.40
2023-03-18T03:08:23.692Z,3.15
2023-03-18T03:10:52.288Z,3.30
2023-03-18T03:13:20.691Z,3.08
2023-03-18T03:15:47.444Z,3.25
2023-03-18T03:18:14.479Z,3.40
2023-03-18T03:20:41.845Z,3.08
2023-03-18T03:23:12.461Z,3.25
2023-03-18T03:25:42.175Z,3.50
2023-03-18T03:28:11.911Z,3.53
2023-03-18T03:30:39.827Z,3.50
2023-03-18T03:33:06.753Z,3.25
2023-03-18T03:35:33.515Z,2.95
2023-03-18T03:38:00.295Z,2.92
2023-03-18T03:40:27.652Z,3.40
2023-03-18T03:42:54.557Z,3.55
2023-03-18T03:45:21.428Z,3.22
2023-03-18T03:47:48.455Z,3.35
2023-03-18T03:50:16.552Z,3.60
2023-03-18T03:52:49.162Z,3.15
2023-03-18T03:55:19.360Z,3.92
2023-03-18T03:57:47.322Z,3.70
2023-03-18T04:00:17.173Z,3.88
2023-03-18T04:02:45.317Z,3.30
2023-03-18T04:05:17.315Z,2.58
2023-03-18T04:07:45.970Z,2.97
2023-03-18T04:10:14.854Z,3.40
2023-03-18T04:12:47.362Z,4.07
2023-03-18T04:15:16.447Z,3.35
2023-03-18T04:17:45.752Z,3.47
2023-03-18T04:20:12.973Z,3.15
2023-03-18T04:22:39.666Z,3.17
2023-03-18T04:25:06.695Z,3.78
2023-03-18T04:27:37.359Z,3.17
2023-03-18T04:30:06.377Z,2.92
2023-03-18T04:32:33.123Z,3.13
2023-03-18T04:35:00.066Z,2.83
2023-03-18T04:37:26.991Z,2.47
2023-03-18T04:39:53.651Z,2.90
2023-03-18T04:42:20.321Z,2.80
2023-03-18T04:44:47.076Z,2.85
2023-03-18T04:47:13.863Z,2.40
2023-03-18T04:49:43.866Z,2.70
2023-03-18T04:52:10.506Z,2.75
2023-03-18T04:54:39.022Z,2.83
2023-03-18T04:57:06.720Z,2.75
2023-03-18T04:59:33.551Z,3.08
2023-03-18T05:02:00.238Z,2.83
2023-03-18T05:04:27.363Z,2.70
2023-03-18T05:06:54.108Z,2.35
2023-03-18T05:09:20.769Z,3.05
2023-03-18T05:11:49.684Z,2.70
2023-03-18T05:14:16.349Z,2.95
2023-03-18T05:16:43.264Z,3.05
2023-03-18T05:19:12.986Z,2.15
2023-03-18T05:21:44.314Z,2.30
2023-03-18T05:24:10.979Z,2.95
2023-03-18T05:26:38.816Z,2.25
2023-03-18T05:29:05.578Z,2.58
2023-03-18T05:31:32.297Z,2.05
2023-03-18T05:34:00.315Z,2.30
2023-03-18T05:36:27.007Z,2.60
2023-03-18T05:38:53.678Z,3.08
2023-03-18T05:41:22.506Z,2.53
2023-03-18T05:43:49.158Z,1.77
2023-03-18T05:46:18.331Z,2.00
2023-03-18T05:48:45.109Z,2.13
2023-03-18T05:51:12.620Z,1.90
2023-03-18T05:53:39.533Z,2.38
2023-03-18T05:56:07.781Z,1.90
2023-03-18T05:58:34.718Z,1.67
2023-03-18T06:01:01.387Z,2.00
2023-03-18T06:03:28.196Z,2.50
2023-03-18T06:05:55.330Z,1.92
2023-03-18T06:08:22.392Z,2.13
2023-03-18T06:10:49.086Z,1.75
2023-03-18T06:13:16.404Z,1.63
2023-03-18T06:15:48.734Z,2.00
2023-03-18T06:18:15.617Z,2.03
2023-03-18T06:20:42.421Z,1.88
2023-03-18T06:23:10.056Z,2.22
2023-03-18T06:25:36.864Z,2.00
2023-03-18T06:28:03.809Z,2.40
2023-03-18T06:30:30.532Z,2.30
2023-03-18T06:32:57.666Z,2.10
2023-03-18T06:35:26.635Z,2.05
2023-03-18T06:37:53.836Z,2.03
2023-03-18T06:40:20.812Z,2.38
2023-03-18T06:42:50.061Z,2.75
2023-03-18T06:45:17.185Z,2.65
2023-03-18T06:47:44.601Z,2.38
2023-03-18T06:50:11.812Z,2.78
2023-03-18T06:52:38.543Z,2.60
2023-03-18T06:55:06.596Z,2.92
2023-03-18T06:57:34.651Z,2.38
2023-03-18T07:00:02.021Z,2.42
2023-03-18T07:02:28.739Z,2.97
2023-03-18T07:04:55.466Z,2.55
2023-03-18T07:07:22.986Z,2.60
2023-03-18T07:09:50.697Z,2.60
2023-03-18T07:12:17.560Z,2.53
2023-03-18T07:14:44.199Z,2.20
2023-03-18T07:17:14.404Z,2.28
2023-03-18T07:19:41.845Z,1.75
2023-03-18T07:22:11.771Z,1.90
2023-03-18T07:24:38.534Z,1.70
2023-03-18T07:27:06.826Z,1.80
2023-03-18T07:29:33.656Z,1.88
2023-03-18T07:32:01.710Z,1.88
2023-03-18T07:34:28.628Z,2.25
2023-03-18T07:36:55.712Z,2.30
2023-03-18T07:39:24.627Z,1.95
2023-03-18T07:41:51.673Z,1.90
2023-03-18T07:44:18.493Z,2.35
2023-03-18T07:46:45.515Z,1.75
2023-03-18T07:49:12.235Z,1.63
2023-03-18T07:51:38.844Z,1.45
2023-03-18T07:54:05.586Z,1.60
2023-03-18T07:56:32.367Z,1.48
2023-03-18T07:59:01.273Z,1.45
2023-03-18T08:01:28.994Z,2.05
2023-03-18T08:03:58.097Z,1.52
2023-03-18T08:06:25.226Z,1.92
2023-03-18T08:08:54.682Z,1.95
2023-03-18T08:11:21.336Z,1.30
2023-03-18T08:13:48.010Z,1.83
2023-03-18T08:16:15.585Z,1.90
2023-03-18T08:18:42.344Z,1.98
2023-03-18T08:21:09.512Z,1.60
2023-03-18T08:23:39.255Z,1.95
2023-03-18T08:26:08.087Z,1.60
2023-03-18T08:28:34.802Z,1.48
2023-03-18T08:31:01.470Z,1.77
2023-03-18T08:33:33.469Z,1.58
2023-03-18T08:36:02.584Z,1.70
2023-03-18T08:38:29.354Z,1.77
2023-03-18T08:40:58.922Z,1.70
2023-03-18T08:43:25.849Z,1.60
2023-03-18T08:45:53.906Z,1.33
2023-03-18T08:48:21.793Z,1.50
2023-03-18T08:50:49.022Z,1.10
2023-03-18T08:53:18.497Z,1.70
2023-03-18T08:55:46.444Z,1.40
2023-03-18T08:58:15.475Z,1.88
2023-03-18T09:00:42.920Z,1.30
2023-03-18T09:03:10.047Z,1.92
2023-03-18T09:05:37.594Z,1.45
2023-03-18T09:08:07.712Z,1.50
2023-03-18T09:10:35.638Z,1.27
2023-03-18T09:13:02.393Z,1.52
2023-03-18T09:15:29.126Z,1.33
2023-03-18T09:18:10.801Z,1.40
2023-03-18T09:20:39.122Z,1.75
2023-03-18T09:23:06.685Z,1.40
2023-03-18T09:25:34.405Z,1.65
2023-03-18T09:28:01.411Z,1.30
2023-03-18T09:30:30.458Z,1.60
2023-03-18T09:32:57.363Z,1.48
2023-03-18T09:35:24.563Z,1.40
2023-03-18T09:37:51.959Z,1.48
2023-03-18T09:40:28.990Z,1.80
2023-03-18T09:42:59.891Z,1.67
2023-03-18T09:45:35.174Z,1.80
2023-03-18T09:48:07.373Z,1.50
2023-03-18T09:50:48.628Z,1.60
2023-03-18T09:53:24.014Z,1.50
2023-03-18T09:55:57.616Z,1.60
2023-03-18T09:58:54.466Z,1.58
2023-03-18T10:01:24.216Z,1.70
2023-03-18T10:04:09.629Z,1.45
2023-03-18T10:06:37.551Z,1.58
2023-03-18T10:09:07.909Z,1.83
2023-03-18T10:11:39.740Z,1.80
2023-03-18T10:14:07.037Z,1.63
2023-03-18T10:16:55.549Z,1.50
2023-03-18T10:19:24.902Z,1.52
2023-03-18T10:22:04.897Z,1.17
2023-03-18T10:25:17.071Z,1.55
2023-03-18T10:28:24.946Z,1.40
2023-03-18T10:31:18.289Z,1.30
2023-03-18T10:34:09.601Z,1.50
2023-03-18T10:36:48.048Z,1.40
2023-03-18T10:39:20.946Z,1.85
2023-03-18T10:41:53.462Z,1.40
2023-03-18T10:44:31.058Z,1.38
2023-03-18T10:47:28.221Z,1.50
2023-03-18T10:50:08.976Z,1.95
2023-03-18T10:52:58.347Z,1.30
2023-03-18T10:55:31.134Z,1.63
2023-03-18T10:57:58.071Z,1.73
2023-03-18T11:00:31.021Z,1.38
2023-03-18T11:02:58.403Z,1.25
2023-03-18T11:05:36.078Z,1.65
2023-03-18T11:08:10.429Z,1.35
2023-03-18T11:10:46.982Z,1.70
2023-03-18T11:13:17.633Z,1.77
2023-03-18T11:15:55.083Z,1.70
2023-03-18T11:18:25.416Z,1.50
2023-03-18T11:21:03.659Z,1.50
2023-03-18T11:23:56.588Z,1.50
2023-03-18T11:26:29.229Z,1.75
2023-03-18T11:29:05.202Z,1.35
2023-03-18T11:31:32.385Z,1.73
2023-03-18T11:34:00.565Z,1.67
2023-03-18T11:36:28.124Z,1.33
2023-03-18T11:39:02.957Z,1.60
2023-03-18T11:41:32.704Z,1.65
2023-03-18T11:44:05.344Z,1.42
2023-03-18T11:46:55.692Z,1.20
2023-03-18T11:49:29.561Z,1.38
2023-03-18T11:52:06.755Z,1.20
2023-03-18T11:54:43.194Z,1.63
2023-03-18T11:57:42.103Z,1.30
2023-03-18T12:00:26.614Z,1.48
2023-03-18T12:03:20.671Z,1.25
2023-03-18T12:06:10.597Z,1.30
2023-03-18T12:08:57.043Z,1.35
2023-03-18T12:11:46.876Z,1.20
2023-03-18T12:14:33.375Z,1.20
2023-03-18T12:17:03.897Z,1.35
2023-03-18T12:19:41.922Z,1.55
2023-03-18T12:22:30.722Z,1.58
2023-03-18T12:25:22.530Z,1.23
2023-03-18T12:28:20.582Z,1.40
2023-03-18T12:31:04.486Z,1.42
2023-03-18T12:33:50.947Z,1.40
2023-03-18T12:36:31.140Z,1.40
2023-03-18T12:39:18.115Z,1.40
2023-03-18T12:42:07.358Z,1.70
2023-03-18T12:44:55.204Z,1.50
2023-03-18T12:48:06.386Z,1.30
2023-03-18T12:50:51.808Z,1.30
2023-03-18T12:53:35.720Z,1.58
2023-03-18T12:58:43.982Z,1.20
2023-03-18T13:01:19.182Z,1.15
2023-03-18T13:03:58.455Z,1.40
2023-03-18T13:06:33.381Z,1.30
2023-03-18T13:09:13.487Z,1.40
2023-03-18T13:12:05.930Z,1.42
2023-03-18T13:14:53.823Z,1.13
2023-03-18T13:17:31.641Z,1.33
2023-03-18T13:20:00.773Z,1.30
2023-03-18T13:22:43.079Z,1.33
2023-03-18T13:25:30.606Z,1.15
2023-03-18T13:28:18.529Z,1.58
2023-03-18T13:31:09.376Z,1.27
2023-03-18T13:34:12.911Z,1.38
2023-03-18T13:37:10.042Z,2.38
2023-03-18T13:40:17.890Z,1.42
2023-03-18T13:42:46.619Z,1.60
2023-03-18T13:45:33.753Z,1.25
2023-03-18T13:48:06.513Z,1.30
2023-03-18T13:50:42.261Z,1.50
2023-03-18T13:53:28.954Z,1.60
2023-03-18T13:55:58.835Z,1.50
2023-03-18T13:58:29.719Z,1.20
2023-03-18T14:00:56.928Z,1.30
2023-03-18T14:03:50.711Z,1.52
2023-03-18T14:06:38.672Z,1.25
2023-03-18T14:09:32.363Z,1.30
2023-03-18T14:12:34.703Z,1.63
2023-03-18T14:15:33.765Z,1.52
2023-03-18T14:18:00.955Z,1.13
2023-03-18T14:20:40.387Z,1.10
2023-03-18T14:23:33.686Z,0.80
2023-03-18T14:26:17.114Z,0.90
2023-03-18T14:28:54.637Z,1.30
2023-03-18T14:31:32.313Z,1.02
2023-03-18T14:34:10.705Z,1.30
2023-03-18T14:36:55.569Z,1.33
2023-03-18T14:39:30.614Z,1.75
2023-03-18T14:42:02.397Z,1.42
2023-03-18T14:44:47.849Z,1.75
2023-03-18T14:47:37.440Z,1.30
2023-03-18T14:50:14.410Z,1.48
2023-03-18T14:52:44.279Z,1.20
2023-03-18T14:55:25.738Z,1.10
2023-03-18T14:57:55.016Z,1.60
2023-03-18T15:00:24.967Z,1.30
2023-03-18T15:03:20.043Z,1.20
2023-03-18T15:05:46.840Z,1.20
2023-03-18T15:08:19.465Z,1.17
2023-03-18T15:10:51.752Z,1.30
2023-03-18T15:13:23.895Z,1.08
2023-03-18T15:15:56.355Z,1.58
2023-03-18T15:18:29.976Z,1.15
2023-03-18T15:21:05.524Z,1.42
2023-03-18T15:23:39.095Z,1.42
2023-03-18T15:26:23.813Z,1.40
2023-03-18T15:28:56.469Z,1.23
2023-03-18T15:31:42.380Z,1.35
2023-03-18T15:34:30.704Z,1.48
2023-03-18T15:37:01.453Z,1.27
2023-03-18T15:39:32.202Z,1.33
2023-03-18T15:42:01.085Z,1.40
2023-03-18T15:44:37.014Z,1.42
2023-03-18T15:47:12.373Z,1.30
2023-03-18T15:50:00.986Z,1.48
2023-03-18T15:52:33.365Z,1.30
2023-03-18T15:55:01.275Z,1.08
2023-03-18T15:57:35.925Z,1.25
2023-03-18T16:00:06.356Z,1.20
2023-03-18T16:02:34.237Z,1.10
2023-03-18T16:05:40.788Z,1.10
2023-03-18T16:08:14.019Z,1.20
2023-03-18T16:10:41.437Z,1.60
2023-03-18T16:13:15.687Z,1.40
2023-03-18T16:15:42.493Z,1.50
2023-03-18T16:18:12.818Z,1.23
2023-03-18T16:20:41.720Z,1.40
2023-03-18T16:23:08.501Z,1.38
2023-03-18T16:25:35.622Z,1.50
2023-03-18T16:28:02.653Z,1.40
2023-03-18T16:30:31.408Z,1.67
2023-03-18T16:32:58.862Z,1.40
2023-03-18T16:35:31.321Z,1.80
2023-03-18T16:38:00.431Z,1.90
2023-03-18T16:40:30.689Z,1.33
2023-03-18T16:42:57.931Z,1.65
2023-03-18T16:45:30.254Z,1.40
2023-03-18T16:48:00.884Z,1.33
2023-03-18T16:50:41.378Z,1.60
2023-03-18T16:53:27.139Z,2.30
2023-03-18T16:56:16.291Z,2.22
2023-03-18T16:58:45.430Z,1.63
2023-03-18T17:01:16.575Z,1.50
2023-03-18T17:03:44.401Z,1.92
2023-03-18T17:06:12.638Z,1.88
2023-03-18T17:08:40.052Z,1.52
2023-03-18T17:11:07.491Z,1.20
2023-03-18T17:13:38.061Z,1.70
2023-03-18T17:16:16.164Z,1.77
2023-03-18T17:18:42.876Z,1.60
2023-03-18T17:21:12.125Z,2.22
2023-03-18T17:23:38.823Z,1.90
2023-03-18T17:26:07.174Z,1.63
2023-03-18T17:28:38.518Z,1.98
2023-03-18T17:31:09.240Z,1.77
2023-03-18T17:33:37.125Z,1.88
2023-03-18T17:36:05.768Z,1.73
2023-03-18T17:38:34.984Z,1.77
2023-03-18T17:41:05.355Z,1.70
2023-03-18T17:43:36.428Z,1.55
2023-03-18T17:46:04.738Z,1.58
2023-03-18T17:48:36.013Z,1.52
2023-03-18T17:51:18.651Z,1.80
2023-03-18T17:53:48.109Z,2.50
2023-03-18T17:56:17.208Z,2.42
2023-03-18T17:58:46.658Z,2.50
2023-03-18T18:01:19.460Z,2.25
2023-03-18T18:03:47.745Z,2.33
2023-03-18T18:06:19.759Z,1.95
2023-03-18T18:08:48.275Z,2.42
2023-03-18T18:11:19.119Z,2.28
2023-03-18T18:13:47.306Z,2.58
2023-03-18T18:16:14.442Z,2.10
2023-03-18T18:18:41.644Z,2.00
2023-03-18T18:21:23.431Z,2.50
2023-03-18T18:23:50.468Z,2.42
2023-03-18T18:26:19.733Z,3.28
2023-03-18T18:28:48.559Z,2.92
2023-03-18T18:31:17.778Z,4.15
2023-03-18T18:33:45.686Z,4.38
2023-03-18T18:36:16.707Z,3.53
2023-03-18T18:38:43.391Z,3.33
2023-03-18T18:41:10.457Z,3.28
2023-03-18T18:43:37.150Z,3.22
2023-03-18T18:46:04.232Z,3.75
2023-03-18T18:48:37.821Z,2.70
2023-03-18T18:51:04.731Z,3.33
2023-03-18T18:53:36.532Z,3.80
2023-03-18T18:56:43.918Z,3.42
2023-03-18T18:59:28.552Z,3.05
2023-03-18T19:01:56.303Z,3.67
2023-03-18T19:04:23.832Z,3.58
2023-03-18T19:06:54.551Z,3.40
2023-03-18T19:09:26.213Z,3.45
2023-03-18T19:11:53.762Z,3.22
2023-03-18T19:14:31.264Z,3.80
2023-03-18T19:17:03.491Z,3.75
2023-03-18T19:19:34.342Z,4.80
2023-03-18T19:22:01.185Z,4.55
2023-03-18T19:24:29.269Z,4.50
2023-03-18T19:27:02.104Z,4.20
2023-03-18T19:29:29.264Z,4.85
2023-03-18T19:31:56.176Z,5.10
2023-03-18T19:34:23.735Z,5.05
2023-03-18T19:36:55.921Z,5.60
2023-03-18T19:39:26.435Z,5.00
2023-03-18T19:41:53.071Z,4.60
2023-03-18T19:44:25.530Z,3.50
2023-03-18T19:46:55.014Z,3.17
2023-03-18T19:49:38.891Z,2.92
2023-03-18T19:52:37.857Z,3.55
2023-03-18T19:55:08.357Z,3.85
2023-03-18T19:57:35.181Z,3.92
2023-03-18T20:00:05.846Z,3.38
2023-03-18T20:02:35.795Z,3.63
2023-03-18T20:05:14.429Z,2.90
2023-03-18T20:07:43.667Z,3.33
2023-03-18T20:10:12.199Z,3.15
2023-03-18T20:12:41.226Z,5.00
2023-03-18T20:15:14.736Z,4.00
2023-03-18T20:17:44.721Z,3.40
2023-03-18T20:20:20.404Z,3.45
2023-03-18T20:22:53.093Z,3.28
2023-03-18T20:25:25.708Z,3.08
2023-03-18T20:27:56.187Z,3.13
2023-03-18T20:30:31.182Z,3.78
2023-03-18T20:32:58.850Z,3.30
2023-03-18T20:35:28.824Z,3.75
2023-03-18T20:37:57.417Z,4.45
2023-03-18T20:40:29.992Z,4.40
2023-03-18T20:42:57.612Z,3.88
2023-03-18T20:45:25.057Z,3.67
2023-03-18T20:47:52.043Z,3.25
2023-03-18T20:50:22.069Z,4.40
2023-03-18T20:52:49.370Z,4.97
2023-03-18T20:55:22.002Z,4.53
2023-03-18T20:57:52.789Z,3.60
2023-03-18T21:00:24.124Z,3.65
2023-03-18T21:02:57.763Z,4.18
2023-03-18T21:05:26.214Z,3.63
2023-03-18T21:07:53.662Z,3.25
2023-03-18T21:10:23.698Z,3.70
2023-03-18T21:12:51.040Z,4.30
2023-03-18T21:15:22.137Z,3.38
2023-03-18T21:17:51.605Z,3.67
2023-03-18T21:20:22.422Z,3.78
2023-03-18T21:22:50.869Z,3.80
2023-03-18T21:25:20.714Z,4.00
2023-03-18T21:27:48.410Z,2.90
2023-03-18T21:30:19.362Z,3.50
2023-03-18T21:32:50.593Z,2.85
2023-03-18T21:35:25.681Z,3.08
2023-03-18T21:37:53.119Z,3.55
2023-03-18T21:40:24.004Z,3.30
2023-03-18T21:42:51.809Z,4.22
2023-03-18T21:45:24.352Z,2.92
2023-03-18T21:47:53.744Z,2.90
2023-03-18T21:50:26.264Z,2.90
2023-03-18T21:52:54.558Z,4.18
2023-03-18T21:55:21.941Z,3.38
2023-03-18T21:57:49.433Z,3.15
2023-03-18T22:00:20.156Z,3.20
2023-03-18T22:02:50.331Z,2.50
2023-03-18T22:05:23.750Z,3.53
2023-03-18T22:07:51.817Z,3.80
2023-03-18T22:10:23.595Z,4.07
2023-03-18T22:12:53.350Z,4.60
2023-03-18T22:15:40.042Z,4.13
2023-03-18T22:18:09.681Z,4.25
2023-03-18T22:20:38.236Z,3.78
2023-03-18T22:23:20.044Z,3.70
2023-03-18T22:25:49.420Z,4.38
2023-03-18T22:28:16.333Z,4.30
2023-03-18T22:30:47.587Z,4.30
2023-03-18T22:33:25.465Z,4.50
2023-03-18T22:35:52.773Z,5.38
2023-03-18T22:38:21.635Z,5.63
2023-03-18T22:40:52.624Z,5.63
2023-03-18T22:43:38.584Z,6.07
2023-03-18T22:46:07.916Z,6.70
2023-03-18T22:48:34.704Z,6.20
2023-03-18T22:51:02.240Z,5.47
2023-03-18T22:53:30.513Z,5.60
2023-03-18T22:56:02.054Z,6.22
2023-03-18T22:58:28.876Z,6.00
2023-03-18T23:00:55.995Z,5.80
2023-03-18T23:03:28.751Z,6.70
2023-03-18T23:05:57.616Z,5.35
2023-03-18T23:08:25.131Z,4.90
2023-03-18T23:10:56.432Z,4.68
2023-03-18T23:13:37.015Z,5.22
2023-03-18T23:16:11.401Z,5.60
2023-03-18T23:18:40.881Z,4.30
2023-03-18T23:21:09.893Z,4.45
2023-03-18T23:23:36.771Z,3.90
2023-03-18T23:26:03.430Z,4.20
2023-03-18T23:28:30.067Z,4.20
2023-03-18T23:30:58.835Z,4.13
2023-03-18T23:33:27.793Z,4.30
2023-03-18T23:35:54.518Z,4.68
2023-03-18T23:38:21.245Z,4.60
2023-03-18T23:40:50.382Z,4.07
2023-03-18T23:43:17.062Z,3.80
2023-03-18T23:45:43.939Z,3.10
2023-03-18T23:48:10.708Z,3.72
2023-03-18T23:50:39.725Z,2.97
2023-03-18T23:53:06.533Z,2.53
2023-03-18T23:55:35.541Z,3.10
2023-03-18T23:58:03.457Z,3.15
